createdAt,value
2023-03-25T00:01:19.623Z,99193.39
2023-03-25T00:03:50.756Z,99188.63
2023-03-25T00:06:20.412Z,99184.63
2023-03-25T00:08:48.798Z,99187.36
2023-03-25T00:11:17.370Z,99179.33
2023-03-25T00:13:45.767Z,99177.02
2023-03-25T00:16:15.345Z,99182.21
2023-03-25T00:18:43.643Z,99180.84
2023-03-25T00:21:11.951Z,99178.42
2023-03-25T00:23:42.277Z,99174.36
2023-03-25T00:26:11.057Z,99167.57
2023-03-25T00:28:39.778Z,99167.05
2023-03-25T00:31:13.323Z,99163.36
2023-03-25T00:33:41.950Z,99162.54
2023-03-25T00:36:13.601Z,99155.27
2023-03-25T00:38:43.538Z,99153.96
2023-03-25T00:41:23.035Z,99154.45
2023-03-25T00:43:54.559Z,99155.16
2023-03-25T00:46:27.013Z,99156.33
2023-03-25T00:48:56.812Z,99160.48
2023-03-25T00:51:28.104Z,99165.48
2023-03-25T00:54:02.199Z,99167.28
2023-03-25T00:56:31.346Z,99163.79
2023-03-25T00:58:59.718Z,99164.07
2023-03-25T01:01:29.205Z,99158.70
2023-03-25T01:03:59.370Z,99150.03
2023-03-25T01:06:34.805Z,99153.05
2023-03-25T01:09:06.235Z,99156.66
2023-03-25T01:11:37.760Z,99155.44
2023-03-25T01:14:12.169Z,99157.59
2023-03-25T01:16:41.131Z,99150.84
2023-03-25T01:19:11.132Z,99141.77
2023-03-25T01:21:39.744Z,99137.91
2023-03-25T01:24:13.090Z,99139.67
2023-03-25T01:26:46.283Z,99142.10
2023-03-25T01:29:22.030Z,99146.64
2023-03-25T01:31:51.544Z,99145.27
2023-03-25T01:34:20.195Z,99145.86
2023-03-25T01:38:22.358Z,99144.16
2023-03-25T01:40:55.872Z,99138.24
2023-03-25T01:43:24.306Z,99131.88
2023-03-25T01:45:52.631Z,99128.77
2023-03-25T01:48:35.859Z,99131.11
2023-03-25T01:51:13.651Z,99127.17
2023-03-25T01:53:43.137Z,99119.92
2023-03-25T01:56:18.514Z,99118.24
2023-03-25T01:58:48.332Z,99113.85
2023-03-25T02:01:21.870Z,99107.14
2023-03-25T02:03:52.980Z,99108.13
2023-03-25T02:06:31.958Z,99106.61
2023-03-25T02:09:05.022Z,99106.96
2023-03-25T02:11:33.931Z,99105.69
2023-03-25T02:14:10.202Z,99102.91
2023-03-25T02:17:04.059Z,99099.08
2023-03-25T02:20:13.918Z,99101.21
2023-03-25T02:23:01.935Z,99099.76
2023-03-25T02:26:19.251Z,99100.74
2023-03-25T02:29:24.163Z,99100.25
2023-03-25T02:32:16.429Z,99100.50
2023-03-25T02:35:16.688Z,99097.02
2023-03-25T02:38:31.487Z,99097.05
2023-03-25T02:41:21.102Z,99098.04
2023-03-25T02:44:16.190Z,99094.23
2023-03-25T02:46:57.721Z,99091.36
2023-03-25T02:49:36.426Z,99092.73
2023-03-25T02:52:29.120Z,99096.60
2023-03-25T02:55:05.242Z,99094.94
2023-03-25T02:57:38.286Z,99102.67
2023-03-25T03:00:14.538Z,99099.13
2023-03-25T03:03:00.426Z,99105.73
2023-03-25T03:05:45.587Z,99103.60
2023-03-25T03:08:38.906Z,99104.73
2023-03-25T03:11:23.690Z,99108.70
2023-03-25T03:14:22.817Z,99110.58
2023-03-25T03:17:20.188Z,99104.88
2023-03-25T03:20:02.286Z,99102.53
2023-03-25T03:22:39.477Z,99102.31
2023-03-25T03:25:19.409Z,99106.77
2023-03-25T03:27:56.729Z,99104.26
2023-03-25T03:30:39.536Z,99110.98
2023-03-25T03:33:36.969Z,99113.59
2023-03-25T03:36:13.685Z,99116.01
2023-03-25T03:38:50.674Z,99115.23
2023-03-25T03:41:23.879Z,99111.24
2023-03-25T03:44:05.255Z,99117.19
2023-03-25T03:46:58.969Z,99119.45
2023-03-25T03:49:43.100Z,99118.40
2023-03-25T03:52:21.788Z,99121.53
2023-03-25T03:55:10.851Z,99123.00
2023-03-25T03:57:47.316Z,99125.88
2023-03-25T04:00:24.148Z,99126.52
2023-03-25T04:03:24.587Z,99127.87
2023-03-25T04:06:06.548Z,99127.16
2023-03-25T04:08:51.922Z,99126.52
2023-03-25T04:11:24.645Z,99129.36
2023-03-25T04:13:58.178Z,99131.64
2023-03-25T04:16:26.586Z,99125.83
2023-03-25T04:18:55.167Z,99121.81
2023-03-25T04:21:23.965Z,99122.01
2023-03-25T04:23:52.346Z,99122.96
2023-03-25T04:26:21.900Z,99123.45
2023-03-25T04:28:50.976Z,99129.86
2023-03-25T04:31:19.321Z,99131.81
2023-03-25T04:33:48.713Z,99132.63
2023-03-25T04:36:17.385Z,99131.80
2023-03-25T04:38:45.964Z,99132.77
2023-03-25T04:41:15.087Z,99136.98
2023-03-25T04:43:45.301Z,99137.52
2023-03-25T04:46:16.927Z,99142.73
2023-03-25T04:48:47.533Z,99142.42
2023-03-25T04:51:16.089Z,99140.61
2023-03-25T04:53:44.507Z,99137.01
2023-03-25T04:56:16.764Z,99140.61
2023-03-25T04:58:46.352Z,99140.44
2023-03-25T05:01:30.646Z,99140.85
2023-03-25T05:04:05.154Z,99141.11
2023-03-25T05:06:38.372Z,99137.20
2023-03-25T05:09:12.029Z,99135.09
2023-03-25T05:11:41.890Z,99136.54
2023-03-25T05:14:12.926Z,99140.34
2023-03-25T05:16:41.504Z,99136.30
2023-03-25T05:19:10.307Z,99135.45
2023-03-25T05:21:41.191Z,99136.30
2023-03-25T05:24:13.559Z,99134.17
2023-03-25T05:26:42.939Z,99144.77
2023-03-25T05:29:14.874Z,99141.10
2023-03-25T05:31:46.128Z,99136.02
2023-03-25T05:34:17.299Z,99133.23
2023-03-25T05:36:46.354Z,99135.37
2023-03-25T05:39:15.485Z,99133.70
2023-03-25T05:41:46.109Z,99131.02
2023-03-25T05:44:14.866Z,99128.67
2023-03-25T05:46:43.238Z,99133.43
2023-03-25T05:49:11.574Z,99130.46
2023-03-25T05:51:39.854Z,99131.63
2023-03-25T05:54:11.500Z,99133.91
2023-03-25T05:56:41.497Z,99132.11
2023-03-25T05:59:10.496Z,99135.91
2023-03-25T06:01:39.172Z,99137.39
2023-03-25T06:04:10.512Z,99143.42
2023-03-25T06:06:41.503Z,99142.95
2023-03-25T06:09:10.281Z,99145.89
2023-03-25T06:11:38.892Z,99141.51
2023-03-25T06:14:07.970Z,99141.42
2023-03-25T06:16:36.318Z,99149.88
2023-03-25T06:19:04.834Z,99150.70
2023-03-25T06:21:34.020Z,99150.99
2023-03-25T06:24:03.134Z,99151.96
2023-03-25T06:26:32.896Z,99153.73
2023-03-25T06:29:02.745Z,99151.36
2023-03-25T06:31:34.158Z,99153.21
2023-03-25T06:34:03.288Z,99154.64
2023-03-25T06:36:31.813Z,99150.96
2023-03-25T06:39:00.218Z,99147.28
2023-03-25T06:41:28.871Z,99148.48
2023-03-25T06:43:57.198Z,99149.65
2023-03-25T06:46:25.604Z,99148.69
2023-03-25T06:48:53.928Z,99144.69
2023-03-25T06:51:23.953Z,99141.45
2023-03-25T06:53:52.472Z,99145.86
2023-03-25T06:56:20.930Z,99143.55
2023-03-25T06:58:49.322Z,99139.50
2023-03-25T07:01:17.859Z,99135.69
2023-03-25T07:03:46.295Z,99129.64
2023-03-25T07:06:20.411Z,99128.75
2023-03-25T07:08:48.992Z,99126.34
2023-03-25T07:11:26.342Z,99135.83
2023-03-25T07:13:55.420Z,99149.30
2023-03-25T07:16:24.502Z,99146.39
2023-03-25T07:18:54.835Z,99150.30
2023-03-25T07:21:23.337Z,99150.70
2023-03-25T07:23:52.100Z,99153.52
2023-03-25T07:26:20.515Z,99156.73
2023-03-25T07:28:48.875Z,99158.57
2023-03-25T07:31:17.391Z,99162.29
2023-03-25T07:33:45.832Z,99157.69
2023-03-25T07:36:14.564Z,99154.92
2023-03-25T07:38:43.006Z,99151.59
2023-03-25T07:41:13.687Z,99150.74
2023-03-25T07:43:43.268Z,99149.75
2023-03-25T07:46:12.413Z,99158.08
2023-03-25T07:48:41.501Z,99151.91
2023-03-25T07:51:10.144Z,99152.63
2023-03-25T07:53:42.467Z,99149.12
2023-03-25T07:56:11.708Z,99147.09
2023-03-25T07:58:40.442Z,99158.98
2023-03-25T08:01:09.036Z,99151.64
2023-03-25T08:03:40.103Z,99142.70
2023-03-25T08:06:08.741Z,99139.10
2023-03-25T08:17:54.291Z,99144.65
2023-03-25T08:20:22.937Z,99147.42
2023-03-25T08:22:51.517Z,99147.86
2023-03-25T08:25:20.319Z,99146.28
2023-03-25T08:27:48.642Z,99146.06
2023-03-25T08:30:17.642Z,99146.77
2023-03-25T08:32:46.443Z,99151.23
2023-03-25T08:35:14.887Z,99152.16
2023-03-25T08:37:43.369Z,99150.69
2023-03-25T08:40:11.951Z,99146.04
2023-03-25T08:42:40.927Z,99148.04
2023-03-25T08:45:10.920Z,99152.23
2023-03-25T08:47:39.921Z,99146.89
2023-03-25T08:50:09.167Z,99144.79
2023-03-25T08:52:37.600Z,99141.62
2023-03-25T08:55:11.132Z,99140.00
2023-03-25T08:57:42.626Z,99137.97
2023-03-25T09:00:15.027Z,99133.96
2023-03-25T09:02:44.761Z,99132.98
2023-03-25T09:05:13.552Z,99128.41
2023-03-25T09:07:47.127Z,99124.91
2023-03-25T09:10:15.543Z,99129.42
2023-03-25T09:12:49.152Z,99125.08
2023-03-25T09:15:18.812Z,99121.98
2023-03-25T09:17:47.285Z,99119.71
2023-03-25T09:20:15.818Z,99120.67
2023-03-25T09:22:44.674Z,99121.22
2023-03-25T09:25:14.976Z,99120.50
2023-03-25T09:27:43.326Z,99124.61
2023-03-25T09:30:12.718Z,99126.92
2023-03-25T09:32:41.718Z,99135.46
2023-03-25T09:35:10.401Z,99135.83
2023-03-25T09:37:38.820Z,99134.67
2023-03-25T09:40:08.185Z,99129.38
2023-03-25T09:43:14.503Z,99129.36
2023-03-25T09:45:51.073Z,99123.30
2023-03-25T09:48:29.602Z,99127.84
2023-03-25T09:51:03.055Z,99131.43
2023-03-25T09:53:50.410Z,99132.13
2023-03-25T09:56:24.483Z,99134.50
2023-03-25T09:58:59.252Z,99137.73
2023-03-25T10:01:53.900Z,99127.76
2023-03-25T10:04:40.996Z,99137.48
2023-03-25T10:07:34.800Z,99130.63
2023-03-25T10:10:39.281Z,99122.23
2023-03-25T10:13:26.569Z,99126.02
2023-03-25T10:16:36.008Z,99122.80
2023-03-25T10:19:51.285Z,99120.51
2023-03-25T10:22:38.521Z,99117.79
2023-03-25T10:25:22.861Z,99113.15
2023-03-25T10:27:57.432Z,99112.28
2023-03-25T10:30:42.972Z,99106.63
2023-03-25T10:33:37.579Z,99105.05
2023-03-25T10:36:13.641Z,99102.00
2023-03-25T10:38:42.710Z,99104.59
2023-03-25T10:41:30.959Z,99096.92
2023-03-25T10:43:59.288Z,99097.46
2023-03-25T10:46:50.981Z,99096.48
2023-03-25T10:49:22.802Z,99096.03
2023-03-25T10:51:57.610Z,99087.70
2023-03-25T10:54:34.125Z,99084.51
2023-03-25T10:57:07.698Z,99094.98
2023-03-25T10:59:50.330Z,99087.16
2023-03-25T11:02:25.335Z,99087.30
2023-03-25T11:05:01.902Z,99076.81
2023-03-25T11:07:37.978Z,99084.02
2023-03-25T11:10:21.866Z,99077.45
2023-03-25T11:12:55.075Z,99068.56
2023-03-25T11:15:30.889Z,99072.30
2023-03-25T11:18:29.899Z,99067.23
2023-03-25T11:21:07.423Z,99059.20
2023-03-25T11:23:44.090Z,99054.73
2023-03-25T11:26:26.986Z,99050.60
2023-03-25T11:29:02.543Z,99045.04
2023-03-25T11:31:37.460Z,99040.17
2023-03-25T11:34:25.090Z,99042.60
2023-03-25T11:36:59.848Z,99040.43
2023-03-25T11:39:39.525Z,99044.84
2023-03-25T11:42:32.745Z,99046.90
2023-03-25T11:45:03.734Z,99044.20
2023-03-25T11:47:38.186Z,99043.51
2023-03-25T11:50:18.554Z,99040.73
2023-03-25T11:52:50.451Z,99041.81
2023-03-25T11:55:27.759Z,99048.73
2023-03-25T11:57:59.297Z,99053.07
2023-03-25T12:00:38.645Z,99057.92
2023-03-25T12:03:26.722Z,99053.19
2023-03-25T12:06:16.499Z,99054.79
2023-03-25T12:09:00.577Z,99063.83
2023-03-25T12:12:21.770Z,99062.66
2023-03-25T12:15:18.286Z,99063.15
2023-03-25T12:21:51.241Z,99095.73
2023-03-25T12:24:48.585Z,99113.88
2023-03-25T12:27:36.931Z,99112.23
2023-03-25T12:30:45.341Z,99109.58
2023-03-25T12:33:48.355Z,99108.52
2023-03-25T12:36:48.308Z,99117.02
2023-03-25T12:39:51.384Z,99125.39
2023-03-25T12:42:50.755Z,99121.81
2023-03-25T12:46:19.591Z,99125.55
2023-03-25T12:49:01.887Z,99131.05
2023-03-25T12:52:06.473Z,99131.17
2023-03-25T12:54:49.812Z,99129.25
2023-03-25T12:57:57.914Z,99133.64
2023-03-25T13:00:47.267Z,99128.64
2023-03-25T13:03:37.631Z,99132.20
2023-03-25T13:06:42.130Z,99136.85
2023-03-25T13:10:11.807Z,99130.11
2023-03-25T13:13:23.376Z,99127.32
2023-03-25T13:16:19.566Z,99128.26
2023-03-25T13:18:56.721Z,99122.27
2023-03-25T13:22:14.113Z,99120.70
2023-03-25T13:24:59.090Z,99113.14
2023-03-25T13:27:36.879Z,99111.99
2023-03-25T13:30:31.030Z,99114.80
2023-03-25T13:33:45.698Z,99116.31
2023-03-25T13:36:37.878Z,99104.62
2023-03-25T13:39:25.387Z,99092.20
2023-03-25T13:42:19.353Z,99094.30
2023-03-25T13:44:51.406Z,99096.80
2023-03-25T13:47:35.570Z,99099.16
2023-03-25T13:50:29.524Z,99100.13
2023-03-25T13:53:32.668Z,99105.77
2023-03-25T13:56:07.448Z,99111.24
2023-03-25T13:59:13.951Z,99102.27
2023-03-25T14:02:25.430Z,99111.72
2023-03-25T14:05:18.730Z,99109.48
2023-03-25T14:08:20.870Z,99110.50
2023-03-25T14:11:12.653Z,99115.73
2023-03-25T14:14:01.173Z,99116.73
2023-03-25T14:16:49.254Z,99115.66
2023-03-25T14:19:28.765Z,99102.95
2023-03-25T14:21:58.153Z,99109.83
2023-03-25T14:24:50.381Z,99108.73
2023-03-25T14:27:48.944Z,99100.90
2023-03-25T14:30:29.398Z,99103.08
2023-03-25T14:32:58.605Z,99103.46
2023-03-25T14:35:39.092Z,99100.95
2023-03-25T14:38:10.184Z,99096.81
2023-03-25T14:40:55.446Z,99092.20
2023-03-25T14:43:46.232Z,99098.73
2023-03-25T14:47:55.663Z,99091.84
2023-03-25T14:50:23.990Z,99087.61
2023-03-25T14:53:00.551Z,99090.27
2023-03-25T14:55:43.888Z,99099.80
2023-03-25T14:58:21.080Z,99097.44
2023-03-25T15:01:11.457Z,99098.16
2023-03-25T15:03:44.490Z,99104.74
2023-03-25T15:06:32.909Z,99108.73
2023-03-25T15:09:09.813Z,99100.81
2023-03-25T15:11:43.283Z,99091.40
2023-03-25T15:14:21.685Z,99091.40
2023-03-25T15:16:49.999Z,99099.99
2023-03-25T15:19:20.446Z,99104.99
2023-03-25T15:21:58.010Z,99107.46
2023-03-25T15:24:31.910Z,99113.06
2023-03-25T15:27:49.575Z,99122.08
2023-03-25T15:31:00.512Z,99145.25
2023-03-25T15:33:56.475Z,99162.07
2023-03-25T15:36:47.543Z,99164.77
2023-03-25T15:39:37.369Z,99158.71
2023-03-25T15:42:40.719Z,99168.95
2023-03-25T15:45:34.501Z,99170.69
2023-03-25T15:48:29.698Z,99169.39
2023-03-25T15:51:27.262Z,99157.38
2023-03-25T15:54:17.952Z,99151.59
2023-03-25T15:56:48.582Z,99148.59
2023-03-25T15:59:42.685Z,99145.46
2023-03-25T16:02:28.574Z,99111.42
2023-03-25T16:04:57.235Z,99108.45
2023-03-25T16:07:30.910Z,99103.64
2023-03-25T16:10:16.937Z,99095.42
2023-03-25T16:12:50.594Z,99080.02
2023-03-25T16:15:27.454Z,99071.55
2023-03-25T16:17:58.809Z,99074.09
2023-03-25T16:20:31.995Z,99074.09
2023-03-25T16:23:03.331Z,99070.05
2023-03-25T16:25:37.829Z,99063.96
2023-03-25T16:28:15.656Z,99067.67
2023-03-25T16:30:51.386Z,99066.52
2023-03-25T16:33:31.197Z,99065.61
2023-03-25T16:36:04.825Z,99068.46
2023-03-25T16:38:33.965Z,99073.82
2023-03-25T16:41:11.730Z,99075.53
2023-03-25T16:43:41.437Z,99079.81
2023-03-25T16:46:21.653Z,99081.35
2023-03-25T16:48:54.612Z,99084.48
2023-03-25T16:51:36.076Z,99083.73
2023-03-25T16:54:11.519Z,99082.36
2023-03-25T16:56:43.200Z,99086.05
2023-03-25T16:59:36.667Z,99088.66
2023-03-25T17:02:26.393Z,99089.05
2023-03-25T17:05:22.692Z,99088.02
2023-03-25T17:08:11.148Z,99087.02
2023-03-25T17:10:54.765Z,99092.00
2023-03-25T17:13:34.923Z,99094.02
2023-03-25T17:16:06.900Z,99093.42
2023-03-25T17:18:37.140Z,99090.14
2023-03-25T17:21:12.435Z,99091.34
2023-03-25T17:23:40.669Z,99090.80
2023-03-25T17:26:15.453Z,99086.69
2023-03-25T17:36:40.564Z,99094.56
2023-03-25T17:39:28.068Z,99098.67
2023-03-25T17:42:01.499Z,99095.73
2023-03-25T17:44:37.346Z,99096.48
2023-03-25T17:47:14.363Z,99100.21
2023-03-25T17:49:42.850Z,99095.79
2023-03-25T17:52:11.636Z,99094.80
2023-03-25T17:54:40.028Z,99087.23
2023-03-25T17:57:16.817Z,99086.33
2023-03-25T17:59:47.316Z,99088.33
2023-03-25T18:02:17.432Z,99088.70
2023-03-25T18:04:45.805Z,99090.68
2023-03-25T18:07:14.241Z,99093.61
2023-03-25T18:09:42.538Z,99090.34
2023-03-25T18:12:11.542Z,99087.81
2023-03-25T18:14:39.989Z,99085.67
2023-03-25T18:17:13.282Z,99089.63
2023-03-25T18:19:42.172Z,99091.37
2023-03-25T18:22:19.824Z,99091.06
2023-03-25T18:24:51.993Z,99091.48
2023-03-25T18:27:25.640Z,99094.41
2023-03-25T18:29:59.018Z,99099.38
2023-03-25T18:32:28.584Z,99100.27
2023-03-25T18:34:57.013Z,99100.71
2023-03-25T18:37:25.441Z,99102.26
2023-03-25T18:39:53.934Z,99104.64
2023-03-25T18:42:22.245Z,99111.98
2023-03-25T18:44:52.623Z,99113.48
2023-03-25T18:47:21.966Z,99118.75
2023-03-25T18:49:55.372Z,99114.64
2023-03-25T18:52:23.667Z,99117.01
2023-03-25T18:54:52.001Z,99125.52
2023-03-25T18:57:23.920Z,99136.64
2023-03-25T18:59:52.246Z,99143.59
2023-03-25T19:02:20.690Z,99149.70
2023-03-25T19:04:59.997Z,99160.48
2023-03-25T19:07:29.719Z,99156.60
2023-03-25T19:09:58.075Z,99148.64
2023-03-25T19:12:26.472Z,99153.41
2023-03-25T19:14:54.803Z,99146.89
2023-03-25T19:17:23.283Z,99148.23
2023-03-25T19:19:51.663Z,99150.11
2023-03-25T19:22:19.995Z,99151.51
2023-03-25T19:24:48.798Z,99152.39
2023-03-25T19:27:17.975Z,99149.58
2023-03-25T19:29:46.863Z,99151.41
2023-03-25T19:32:15.354Z,99150.90
2023-03-25T19:34:51.488Z,99150.76
2023-03-25T19:37:19.937Z,99154.33
2023-03-25T19:39:49.631Z,99152.27
2023-03-25T19:42:17.997Z,99152.72
2023-03-25T19:44:47.152Z,99155.17
2023-03-25T19:47:15.960Z,99152.83
2023-03-25T19:49:46.051Z,99155.06
2023-03-25T19:52:14.430Z,99157.02
2023-03-25T19:54:42.729Z,99157.83
2023-03-25T19:57:11.108Z,99157.55
2023-03-25T19:59:39.735Z,99159.80
2023-03-25T20:02:08.401Z,99156.83
2023-03-25T20:04:36.882Z,99160.33
2023-03-25T20:07:05.236Z,99156.56
2023-03-25T20:09:33.629Z,99157.02
2023-03-25T20:12:02.063Z,99158.87
2023-03-25T20:14:30.724Z,99162.05
2023-03-25T20:16:59.106Z,99161.85
2023-03-25T20:19:27.562Z,99163.61
2023-03-25T20:21:56.080Z,99165.21
2023-03-25T20:24:25.022Z,99162.03
2023-03-25T20:26:53.375Z,99161.72
2023-03-25T20:29:23.173Z,99162.55
2023-03-25T20:31:51.470Z,99165.91
2023-03-25T20:34:19.855Z,99168.57
2023-03-25T20:36:50.442Z,99159.91
2023-03-25T20:39:18.770Z,99161.91
2023-03-25T20:41:47.089Z,99159.91
2023-03-25T20:44:15.498Z,99160.30
2023-03-25T20:46:46.526Z,99162.28
2023-03-25T20:49:19.893Z,99160.02
2023-03-25T20:51:48.457Z,99153.03
2023-03-25T20:54:17.011Z,99152.30
2023-03-25T20:56:46.575Z,99148.95
2023-03-25T20:59:16.850Z,99142.50
2023-03-25T21:01:50.837Z,99138.10
2023-03-25T21:04:23.196Z,99135.20
2023-03-25T21:06:52.160Z,99135.20
2023-03-25T21:09:21.468Z,99136.11
2023-03-25T21:11:50.050Z,99134.75
2023-03-25T21:14:18.931Z,99138.69
2023-03-25T21:16:47.690Z,99144.71
2023-03-25T21:19:16.605Z,99143.48
2023-03-25T21:21:45.020Z,99148.59
2023-03-25T21:24:14.720Z,99150.36
2023-03-25T21:26:44.347Z,99151.80
2023-03-25T21:29:12.836Z,99153.27
2023-03-25T21:31:41.660Z,99150.79
2023-03-25T21:34:10.102Z,99150.85
2023-03-25T21:36:38.424Z,99149.98
2023-03-25T21:39:08.182Z,99142.86
2023-03-25T21:41:37.443Z,99144.21
2023-03-25T21:44:06.704Z,99148.80
2023-03-25T21:46:36.920Z,99152.80
2023-03-25T21:49:06.087Z,99151.95
2023-03-25T21:51:37.304Z,99151.80
2023-03-25T21:54:06.392Z,99155.27
2023-03-25T21:56:35.456Z,99152.79
2023-03-25T21:59:05.238Z,99153.14
2023-03-25T22:01:35.960Z,99157.39
2023-03-25T22:04:04.719Z,99148.92
2023-03-25T22:06:35.106Z,99142.30
2023-03-25T22:09:07.175Z,99143.32
2023-03-25T22:11:37.664Z,99143.49
2023-03-25T22:14:06.789Z,99142.64
2023-03-25T22:16:36.061Z,99138.08
2023-03-25T22:19:06.246Z,99135.10
2023-03-25T22:21:37.562Z,99133.58
2023-03-25T22:24:08.771Z,99131.20
2023-03-25T22:26:48.532Z,99128.98
2023-03-25T22:29:16.938Z,99125.42
2023-03-25T22:31:45.258Z,99122.76
2023-03-25T22:34:16.132Z,99122.36
2023-03-25T22:36:51.288Z,99121.35
2023-03-25T22:39:23.116Z,99119.82
2023-03-25T22:41:51.959Z,99118.72
2023-03-25T22:44:20.421Z,99126.15
2023-03-25T22:46:50.045Z,99121.42
2023-03-25T22:49:19.452Z,99124.15
2023-03-25T22:51:48.340Z,99117.41
2023-03-25T22:54:16.892Z,99116.27
2023-03-25T22:56:45.645Z,99117.07
2023-03-25T22:59:15.342Z,99117.54
2023-03-25T23:01:43.858Z,99118.91
2023-03-25T23:04:12.675Z,99118.93
2023-03-25T23:06:41.908Z,99116.02
2023-03-25T23:09:11.370Z,99118.58
2023-03-25T23:11:39.841Z,99117.70
2023-03-25T23:14:13.336Z,99114.38
2023-03-25T23:16:42.122Z,99114.26
2023-03-25T23:19:10.654Z,99112.26
2023-03-25T23:21:38.953Z,99116.69
2023-03-25T23:24:07.967Z,99112.70
2023-03-25T23:26:40.756Z,99106.29
2023-03-25T23:29:13.428Z,99106.52
2023-03-25T23:31:43.819Z,99110.02
2023-03-25T23:34:16.681Z,99113.84
2023-03-25T23:36:46.886Z,99109.18
2023-03-25T23:39:22.757Z,99109.34
2023-03-25T23:41:51.338Z,99107.46
2023-03-25T23:44:19.770Z,99111.59
2023-03-25T23:46:51.372Z,99111.02
2023-03-25T23:49:20.287Z,99104.34
2023-03-25T23:51:48.748Z,99100.33
2023-03-25T23:54:17.133Z,99101.27
2023-03-25T23:56:45.667Z,99103.17
2023-03-25T23:59:14.198Z,99100.67
